createdAt,value
2022-12-14T00:01:49.552Z,99462.31
2022-12-14T00:04:17.981Z,99505.16
2022-12-14T00:06:46.118Z,99506.84
2022-12-14T00:09:13.841Z,99467.31
2022-12-14T00:11:41.590Z,99458.94
2022-12-14T00:14:09.456Z,99500.13
2022-12-14T00:16:38.654Z,99472.38
2022-12-14T00:19:06.430Z,99498.47
2022-12-14T00:21:34.369Z,99505.16
2022-12-14T00:24:02.370Z,99477.41
2022-12-14T00:26:31.931Z,99485.03
2022-12-14T00:29:02.216Z,99484.16
2022-12-14T00:31:33.169Z,99484.16
2022-12-14T00:34:02.335Z,99488.34
2022-12-14T00:36:31.448Z,99470.72
2022-12-14T00:38:59.877Z,99482.47
2022-12-14T00:41:27.723Z,99411.88
2022-12-14T00:43:55.470Z,99374.88
2022-12-14T00:46:23.284Z,99485.03
2022-12-14T00:48:51.136Z,99367.34
2022-12-14T00:51:20.237Z,99474.94
2022-12-14T00:53:47.951Z,99469.03
2022-12-14T00:56:15.658Z,99472.41
2022-12-14T00:58:43.575Z,99424.50
2022-12-14T01:01:13.532Z,99465.72
2022-12-14T01:03:43.120Z,99432.91
2022-12-14T01:06:15.573Z,99460.66
2022-12-14T01:08:44.751Z,99462.31
2022-12-14T01:11:13.306Z,99458.13
2022-12-14T01:13:42.019Z,99448.84
2022-12-14T01:16:11.301Z,99393.38
2022-12-14T01:18:40.763Z,99448.88
2022-12-14T01:21:16.285Z,99419.44
2022-12-14T01:23:46.628Z,99442.13
2022-12-14T01:26:16.441Z,99430.31
2022-12-14T01:28:44.611Z,99416.88
2022-12-14T01:31:14.432Z,99411.81
2022-12-14T01:33:43.290Z,99420.25
2022-12-14T01:36:14.342Z,99408.44
2022-12-14T01:38:42.475Z,99385.75
2022-12-14T01:41:26.477Z,99389.91
2022-12-14T01:43:55.499Z,99391.56
2022-12-14T01:46:29.212Z,99384.84
2022-12-14T01:49:02.571Z,99384.03
2022-12-14T01:51:32.534Z,99380.63
2022-12-14T01:54:02.537Z,99377.25
2022-12-14T01:56:33.439Z,99347.00
2022-12-14T01:59:05.295Z,99368.00
2022-12-14T02:01:33.344Z,99375.56
2022-12-14T02:04:02.733Z,99374.75
2022-12-14T02:06:35.878Z,99375.56
2022-12-14T02:09:07.176Z,99368.03
2022-12-14T02:11:45.146Z,99357.94
2022-12-14T02:14:13.275Z,99367.19
2022-12-14T02:16:42.228Z,99364.66
2022-12-14T02:19:10.295Z,99363.84
2022-12-14T02:21:59.756Z,99354.59
2022-12-14T02:24:48.370Z,99350.38
2022-12-14T02:28:03.777Z,99349.56
2022-12-14T02:30:37.826Z,99326.91
2022-12-14T02:33:20.673Z,99301.66
2022-12-14T02:35:52.659Z,99329.41
2022-12-14T02:38:38.770Z,99296.66
2022-12-14T02:41:13.907Z,99312.63
2022-12-14T02:43:50.358Z,99325.25
2022-12-14T02:46:26.010Z,99321.03
2022-12-14T02:49:00.236Z,99300.91
2022-12-14T02:51:40.745Z,99298.38
2022-12-14T02:54:14.808Z,99299.25
2022-12-14T02:56:48.117Z,99310.16
2022-12-14T02:59:17.258Z,99315.19
2022-12-14T03:01:48.947Z,99289.16
2022-12-14T03:04:18.079Z,99309.31
2022-12-14T03:06:54.336Z,99278.22
2022-12-14T03:09:22.189Z,99306.75
2022-12-14T03:11:55.207Z,99288.31
2022-12-14T03:14:28.256Z,99267.31
2022-12-14T03:17:03.269Z,99290.81
2022-12-14T03:19:36.373Z,99288.28
2022-12-14T03:22:09.707Z,99256.38
2022-12-14T03:24:42.085Z,99240.41
2022-12-14T03:27:17.560Z,99286.59
2022-12-14T03:29:50.729Z,99284.06
2022-12-14T03:32:22.790Z,99283.22
2022-12-14T03:34:56.394Z,99242.06
2022-12-14T03:37:31.460Z,99257.19
2022-12-14T03:39:59.431Z,99201.78
2022-12-14T03:42:34.759Z,99026.47
2022-12-14T03:45:07.596Z,99268.03
2022-12-14T03:47:56.921Z,99193.34
2022-12-14T03:50:29.184Z,99264.69
2022-12-14T03:53:06.947Z,99033.16
2022-12-14T03:55:42.480Z,99242.84
2022-12-14T03:58:25.281Z,99281.44
2022-12-14T04:00:58.847Z,99241.97
2022-12-14T04:03:33.222Z,99184.91
2022-12-14T04:06:06.812Z,99250.34
2022-12-14T04:08:42.386Z,99133.75
2022-12-14T04:11:32.948Z,99284.72
2022-12-14T04:14:24.511Z,99235.19
2022-12-14T04:17:12.525Z,99228.47
2022-12-14T04:19:49.509Z,99258.63
2022-12-14T04:22:22.245Z,99261.09
2022-12-14T04:25:15.388Z,99272.84
2022-12-14T04:27:46.907Z,99267.78
2022-12-14T04:30:14.856Z,99270.31
2022-12-14T04:32:47.229Z,99270.31
2022-12-14T04:35:22.390Z,99276.16
2022-12-14T04:37:53.525Z,99271.94
2022-12-14T04:40:24.574Z,99267.69
2022-12-14T04:42:56.273Z,99268.47
2022-12-14T04:45:29.090Z,99258.34
2022-12-14T04:48:04.239Z,99257.50
2022-12-14T04:50:36.942Z,99257.47
2022-12-14T04:53:11.136Z,99245.66
2022-12-14T04:55:44.647Z,99233.03
2022-12-14T04:58:17.757Z,99210.34
2022-12-14T05:00:58.834Z,99238.00
2022-12-14T05:03:31.634Z,99052.75
2022-12-14T05:06:14.284Z,99209.47
2022-12-14T05:08:58.293Z,99229.56
2022-12-14T05:14:27.849Z,99208.50
2022-12-14T05:16:56.388Z,99206.81
2022-12-14T05:19:26.373Z,99183.28
2022-12-14T05:21:56.312Z,99182.44
2022-12-14T05:24:24.317Z,99199.16
2022-12-14T05:26:52.178Z,99198.28
2022-12-14T05:29:19.912Z,99189.00
2022-12-14T05:31:49.533Z,99182.25
2022-12-14T05:34:18.090Z,99170.41
2022-12-14T05:36:45.910Z,99167.84
2022-12-14T05:39:15.539Z,99168.66
2022-12-14T05:41:43.803Z,99163.56
2022-12-14T05:44:12.340Z,99155.16
2022-12-14T05:46:40.066Z,99160.94
2022-12-14T05:49:07.774Z,99153.31
2022-12-14T05:51:36.337Z,99087.94
2022-12-14T05:54:04.303Z,99144.81
2022-12-14T05:56:33.479Z,99149.00
2022-12-14T05:59:02.443Z,99143.06
2022-12-14T06:01:30.291Z,99144.72
2022-12-14T06:03:58.191Z,99138.78
2022-12-14T06:06:26.069Z,98812.63
2022-12-14T06:08:53.818Z,99028.31
2022-12-14T06:11:23.631Z,98850.16
2022-12-14T06:13:52.962Z,99117.75
2022-12-14T06:16:23.696Z,99015.63
2022-12-14T06:18:53.227Z,99136.09
2022-12-14T06:21:23.538Z,99134.34
2022-12-14T06:23:51.252Z,99138.53
2022-12-14T06:26:19.271Z,99145.25
2022-12-14T06:28:48.570Z,99140.16
2022-12-14T06:31:19.873Z,99140.94
2022-12-14T06:33:49.001Z,99142.59
2022-12-14T06:36:23.525Z,99147.63
2022-12-14T06:38:52.584Z,99151.84
2022-12-14T06:41:21.621Z,99149.31
2022-12-14T06:43:49.838Z,99149.28
2022-12-14T06:46:21.243Z,99140.97
2022-12-14T06:48:50.936Z,99155.16
2022-12-14T06:51:18.890Z,99151.75
2022-12-14T06:53:46.656Z,99158.53
2022-12-14T06:56:17.509Z,99148.41
2022-12-14T06:58:46.256Z,99145.81
2022-12-14T07:01:15.610Z,99153.38
2022-12-14T07:03:48.619Z,99152.50
2022-12-14T07:06:16.683Z,99151.66
2022-12-14T07:08:44.701Z,99143.25
2022-12-14T07:11:14.860Z,99151.56
2022-12-14T07:13:43.374Z,99149.81
2022-12-14T07:16:14.828Z,99154.75
2022-12-14T07:18:42.662Z,99152.97
2022-12-14T07:21:13.700Z,99163.06
2022-12-14T07:23:42.791Z,99162.19
2022-12-14T07:26:14.226Z,99173.97
2022-12-14T07:28:43.151Z,99155.56
2022-12-14T07:31:14.800Z,99103.69
2022-12-14T07:33:42.756Z,99175.63
2022-12-14T07:36:14.162Z,99175.47
2022-12-14T07:38:43.679Z,99166.28
2022-12-14T07:41:16.542Z,99180.41
2022-12-14T07:43:49.884Z,99191.31
2022-12-14T07:46:20.103Z,99181.94
2022-12-14T07:48:49.235Z,99181.91
2022-12-14T07:51:20.572Z,99186.03
2022-12-14T07:53:49.082Z,99175.06
2022-12-14T07:56:19.386Z,99147.44
2022-12-14T07:58:47.441Z,99178.31
2022-12-14T08:01:17.243Z,99178.22
2022-12-14T08:03:47.470Z,99173.06
2022-12-14T08:06:16.444Z,99160.28
2022-12-14T08:08:46.250Z,99166.19
2022-12-14T08:11:14.822Z,99175.44
2022-12-14T08:13:43.340Z,99171.13
2022-12-14T08:16:13.446Z,99176.22
2022-12-14T08:18:41.424Z,99171.06
2022-12-14T08:21:12.491Z,99171.91
2022-12-14T08:23:41.311Z,99169.38
2022-12-14T08:26:10.418Z,99150.19
2022-12-14T08:28:38.163Z,99173.56
2022-12-14T08:31:07.493Z,99180.38
2022-12-14T08:33:36.394Z,99175.50
2022-12-14T08:36:09.562Z,99171.41
2022-12-14T08:38:37.722Z,99163.09
2022-12-14T08:41:06.233Z,99174.03
2022-12-14T08:43:35.801Z,99164.00
2022-12-14T08:46:04.681Z,99156.56
2022-12-14T08:48:32.897Z,99167.34
2022-12-14T08:51:04.349Z,99140.63
2022-12-14T08:53:32.856Z,99158.44
2022-12-14T08:56:05.955Z,99181.91
2022-12-14T08:58:35.694Z,99115.94
2022-12-14T09:01:05.188Z,99192.09
2022-12-14T09:03:33.624Z,99192.91
2022-12-14T09:06:05.479Z,99181.22
2022-12-14T09:08:33.627Z,99198.91
2022-12-14T09:11:01.903Z,99085.91
2022-12-14T09:13:30.228Z,99205.47
2022-12-14T09:16:02.332Z,99207.03
2022-12-14T09:18:31.217Z,99202.81
2022-12-14T09:20:59.366Z,99168.50
2022-12-14T09:23:29.387Z,99190.88
2022-12-14T09:26:01.811Z,99197.72
2022-12-14T09:28:30.409Z,99191.03
2022-12-14T09:31:01.351Z,99195.97
2022-12-14T09:33:30.541Z,99190.75
2022-12-14T09:36:03.127Z,99199.09
2022-12-14T09:38:32.736Z,99180.50
2022-12-14T09:41:07.090Z,99199.56
2022-12-14T09:43:41.315Z,99199.44
2022-12-14T09:46:22.303Z,99204.56
2022-12-14T09:48:52.003Z,99186.28
2022-12-14T09:51:22.296Z,99210.81
2022-12-14T09:53:59.233Z,99210.94
2022-12-14T09:56:29.864Z,99214.34
2022-12-14T09:59:00.332Z,99210.00
2022-12-14T10:04:53.631Z,99203.91
2022-12-14T10:07:34.193Z,99136.94
2022-12-14T10:10:05.918Z,99203.16
2022-12-14T10:12:48.553Z,99199.66
2022-12-14T10:15:25.582Z,99207.06
2022-12-14T10:18:56.799Z,99192.28
2022-12-14T10:21:12.844Z,99196.25
2022-12-14T10:23:46.611Z,99205.97
2022-12-14T10:26:19.834Z,99200.03
2022-12-14T10:28:57.708Z,99201.63
2022-12-14T10:31:35.963Z,99198.13
2022-12-14T10:34:18.392Z,99209.03
2022-12-14T10:36:53.834Z,99209.88
2022-12-14T10:39:42.198Z,99206.50
2022-12-14T10:42:24.691Z,99203.97
2022-12-14T10:45:31.746Z,99204.84
2022-12-14T10:47:54.246Z,99212.75
2022-12-14T10:50:34.336Z,99206.22
2022-12-14T10:53:05.786Z,99207.16
2022-12-14T10:55:37.169Z,99205.53
2022-12-14T10:58:05.123Z,99197.16
2022-12-14T11:00:32.850Z,99171.34
2022-12-14T11:03:01.070Z,99178.19
2022-12-14T11:05:37.753Z,99189.03
2022-12-14T11:08:07.180Z,99193.09
2022-12-14T11:10:36.256Z,99195.56
2022-12-14T11:13:06.855Z,99192.91
2022-12-14T11:15:37.652Z,99186.88
2022-12-14T11:18:20.245Z,99184.31
2022-12-14T11:20:54.275Z,99179.38
2022-12-14T11:23:26.132Z,99144.16
2022-12-14T11:25:56.442Z,99172.53
2022-12-14T11:28:36.513Z,99165.03
2022-12-14T11:31:07.450Z,99170.72
2022-12-14T11:33:40.191Z,99173.97
2022-12-14T11:36:10.175Z,99170.53
2022-12-14T11:38:38.208Z,99153.88
2022-12-14T11:41:11.398Z,99171.25
2022-12-14T11:43:39.763Z,99170.16
2022-12-14T11:46:07.725Z,99167.34
2022-12-14T11:48:38.356Z,99166.25
2022-12-14T11:51:13.027Z,99177.13
2022-12-14T11:53:41.787Z,99171.97
2022-12-14T11:56:15.411Z,99173.63
2022-12-14T11:58:49.732Z,99174.38
2022-12-14T12:01:20.988Z,99177.66
2022-12-14T12:03:51.204Z,99180.09
2022-12-14T12:06:23.721Z,99174.88
2022-12-14T12:08:56.850Z,99173.00
2022-12-14T12:11:28.464Z,99164.41
2022-12-14T12:14:00.594Z,99131.81
2022-12-14T12:16:30.086Z,99162.66
2022-12-14T12:19:09.635Z,99163.41
2022-12-14T12:21:44.517Z,99163.25
2022-12-14T12:24:19.863Z,99162.50
2022-12-14T12:26:51.858Z,99157.59
2022-12-14T12:29:27.342Z,99153.97
2022-12-14T12:31:58.661Z,99162.38
2022-12-14T12:34:31.336Z,99160.53
2022-12-14T12:37:25.766Z,99144.44
2022-12-14T12:39:59.783Z,99155.03
2022-12-14T12:42:36.836Z,99153.19
2022-12-14T12:45:09.526Z,99143.81
2022-12-14T12:47:47.785Z,99120.47
2022-12-14T12:50:17.679Z,99152.94
2022-12-14T12:53:00.872Z,99149.50
2022-12-14T12:55:32.534Z,99164.78
2022-12-14T12:58:05.047Z,99167.41
2022-12-14T13:00:34.709Z,99175.03
2022-12-14T13:03:11.495Z,99166.63
2022-12-14T13:05:47.382Z,99151.44
2022-12-14T13:08:24.390Z,99160.66
2022-12-14T13:11:25.074Z,99149.59
2022-12-14T13:13:47.876Z,99156.38
2022-12-14T13:16:26.208Z,99162.19
2022-12-14T13:19:18.914Z,99158.75
2022-12-14T13:21:52.269Z,99165.53
2022-12-14T13:24:22.841Z,99168.13
2022-12-14T13:27:17.125Z,99164.72
2022-12-14T13:30:03.484Z,99159.63
2022-12-14T13:32:46.865Z,99161.28
2022-12-14T13:35:38.532Z,99171.38
2022-12-14T13:38:33.754Z,99172.25
2022-12-14T13:41:17.237Z,99176.47
2022-12-14T13:44:02.707Z,99152.44
2022-12-14T13:46:31.438Z,99184.09
2022-12-14T13:49:03.758Z,99175.50
2022-12-14T13:51:35.243Z,99172.63
2022-12-14T13:54:06.824Z,99191.22
2022-12-14T13:56:38.824Z,99170.53
2022-12-14T13:59:27.748Z,99199.00
2022-12-14T14:01:59.461Z,99210.16
2022-12-14T14:04:29.609Z,99201.78
2022-12-14T14:07:19.032Z,99204.34
2022-12-14T14:10:00.296Z,99181.09
2022-12-14T14:12:45.850Z,99210.72
2022-12-14T14:15:29.188Z,99210.00
2022-12-14T14:18:06.684Z,99211.75
2022-12-14T14:20:40.606Z,99193.19
2022-12-14T14:23:37.100Z,99209.34
2022-12-14T14:26:18.600Z,99209.56
2022-12-14T14:28:54.722Z,99207.16
2022-12-14T14:31:22.546Z,99219.91
2022-12-14T14:33:56.413Z,99214.81
2022-12-14T14:36:30.313Z,99168.03
2022-12-14T14:39:01.920Z,99192.38
2022-12-14T14:41:37.119Z,99194.03
2022-12-14T14:44:10.276Z,99226.59
2022-12-14T14:46:43.489Z,99233.41
2022-12-14T14:49:25.425Z,99189.94
2022-12-14T14:51:53.130Z,99226.69
2022-12-14T14:57:35.171Z,99235.34
2022-12-14T15:00:06.999Z,99223.78
2022-12-14T15:02:42.026Z,99241.44
2022-12-14T15:05:41.476Z,99235.72
2022-12-14T15:08:15.246Z,99245.00
2022-12-14T15:10:45.974Z,99260.31
2022-12-14T15:13:19.891Z,99264.59
2022-12-14T15:15:52.908Z,99241.22
2022-12-14T15:18:23.363Z,99268.09
2022-12-14T15:20:57.005Z,99260.59
2022-12-14T15:23:25.546Z,99265.75
2022-12-14T15:25:58.169Z,99273.44
2022-12-14T15:28:27.993Z,99274.31
2022-12-14T15:30:58.511Z,99264.22
2022-12-14T15:33:30.443Z,99271.09
2022-12-14T15:36:04.734Z,99255.22
2022-12-14T15:38:34.568Z,99280.47
2022-12-14T15:41:05.801Z,99289.84
2022-12-14T15:43:34.573Z,99287.41
2022-12-14T15:46:03.951Z,99292.50
2022-12-14T15:48:35.783Z,99245.06
2022-12-14T15:51:06.120Z,99303.53
2022-12-14T15:53:36.398Z,99305.25
2022-12-14T15:56:17.497Z,99299.34
2022-12-14T15:58:46.290Z,99286.84
2022-12-14T16:01:22.256Z,99310.34
2022-12-14T16:03:52.790Z,99308.66
2022-12-14T16:06:21.289Z,99312.03
2022-12-14T16:08:55.446Z,99317.94
2022-12-14T16:11:26.395Z,99320.47
2022-12-14T16:13:57.905Z,99332.34
2022-12-14T16:16:27.221Z,99334.06
2022-12-14T16:19:08.655Z,99313.94
2022-12-14T16:21:47.482Z,99336.66
2022-12-14T16:24:24.283Z,99340.09
2022-12-14T16:26:58.115Z,99344.41
2022-12-14T16:29:28.617Z,99341.97
2022-12-14T16:32:06.847Z,99343.63
2022-12-14T16:34:35.121Z,99351.25
2022-12-14T16:37:31.589Z,99347.06
2022-12-14T16:39:53.721Z,99353.84
2022-12-14T16:42:23.798Z,99350.53
2022-12-14T16:44:53.875Z,99349.81
2022-12-14T16:47:29.015Z,99350.81
2022-12-14T16:49:59.655Z,99357.69
2022-12-14T16:52:30.749Z,99258.88
2022-12-14T16:55:11.788Z,99105.03
2022-12-14T16:57:42.309Z,98982.22
2022-12-14T17:00:21.491Z,99010.81
2022-12-14T17:02:57.529Z,98943.28
2022-12-14T17:05:29.852Z,99363.13
2022-12-14T17:08:01.045Z,99288.72
2022-12-14T17:10:30.515Z,99386.25
2022-12-14T17:12:59.386Z,99187.72
2022-12-14T17:15:29.474Z,99316.91
2022-12-14T17:18:10.520Z,99388.41
2022-12-14T17:20:59.263Z,99369.28
2022-12-14T17:23:35.124Z,99394.63
2022-12-14T17:26:23.602Z,99393.03
2022-12-14T17:28:52.030Z,99349.50
2022-12-14T17:31:25.077Z,99341.09
2022-12-14T17:33:57.751Z,99347.81
2022-12-14T17:36:26.166Z,99392.34
2022-12-14T17:39:13.021Z,99352.06
2022-12-14T17:42:11.664Z,99378.13
2022-12-14T17:45:12.830Z,99400.00
2022-12-14T17:47:48.972Z,99400.84
2022-12-14T17:50:30.977Z,99366.47
2022-12-14T17:53:00.181Z,99341.25
2022-12-14T17:55:29.739Z,99410.19
2022-12-14T17:58:01.305Z,99358.09
2022-12-14T18:01:00.143Z,99206.06
2022-12-14T18:03:30.653Z,99454.78
2022-12-14T18:06:02.945Z,99301.78
2022-12-14T18:08:31.250Z,99422.81
2022-12-14T18:11:01.383Z,99350.47
2022-12-14T18:13:31.180Z,99392.47
2022-12-14T18:16:00.418Z,99370.59
2022-12-14T18:18:30.568Z,99294.06
2022-12-14T18:21:02.502Z,99199.94
2022-12-14T18:23:34.050Z,99298.19
2022-12-14T18:26:05.156Z,99427.69
2022-12-14T18:28:33.486Z,99436.06
2022-12-14T18:31:05.270Z,99382.13
2022-12-14T18:33:35.104Z,99430.06
2022-12-14T18:36:05.306Z,99392.16
2022-12-14T18:38:33.178Z,99110.38
2022-12-14T18:41:03.378Z,99366.81
2022-12-14T18:43:32.992Z,99201.88
2022-12-14T18:46:01.907Z,99386.91
2022-12-14T18:48:30.035Z,99442.38
2022-12-14T18:50:57.911Z,99333.72
2022-12-14T18:53:28.135Z,99338.56
2022-12-14T18:55:56.375Z,98872.91
2022-12-14T18:58:26.187Z,99407.59
2022-12-14T19:00:56.809Z,99336.81
2022-12-14T19:03:29.316Z,99459.75
2022-12-14T19:06:26.740Z,99463.03
2022-12-14T19:08:54.169Z,99209.41
2022-12-14T19:11:31.486Z,99476.28
2022-12-14T19:14:00.122Z,99294.31
2022-12-14T19:16:28.395Z,99472.00
2022-12-14T19:18:56.637Z,99315.19
2022-12-14T19:21:25.362Z,99487.81
2022-12-14T19:23:55.641Z,99469.97
2022-12-14T19:26:24.638Z,99395.50
2022-12-14T19:28:52.518Z,99397.34
2022-12-14T20:05:57.662Z,98855.06
2022-12-14T20:14:49.493Z,98772.50
2022-12-14T20:49:53.747Z,98827.09
2022-12-14T21:21:49.865Z,99539.97
2022-12-14T21:37:50.534Z,98937.06
2022-12-14T21:57:16.041Z,99590.00
2022-12-14T22:26:37.983Z,99290.88
2022-12-14T22:54:39.437Z,99602.28
2022-12-14T22:57:11.021Z,99606.50
2022-12-14T22:59:44.074Z,99578.72
2022-12-14T23:02:12.163Z,99617.50
2022-12-14T23:04:40.590Z,99615.00
2022-12-14T23:07:08.404Z,99615.06
2022-12-14T23:09:53.467Z,99615.09
2022-12-14T23:12:40.082Z,99609.09
2022-12-14T23:15:25.946Z,99613.31
2022-12-14T23:18:14.022Z,99616.63
2022-12-14T23:20:59.146Z,99543.88
2022-12-14T23:23:44.371Z,99631.72
2022-12-14T23:26:29.540Z,99635.09
2022-12-14T23:29:16.132Z,99636.00
2022-12-14T23:32:01.530Z,99612.38
2022-12-14T23:34:47.921Z,99556.78
2022-12-14T23:37:33.564Z,99640.47
2022-12-14T23:40:18.731Z,99637.22
2022-12-14T23:43:04.004Z,99489.53
2022-12-14T23:45:50.753Z,99634.09
2022-12-14T23:48:36.036Z,99641.72
2022-12-14T23:51:21.779Z,99638.47
2022-12-14T23:54:07.079Z,99641.09
2022-12-14T23:56:53.004Z,99636.13
2022-12-14T23:59:38.157Z,99603.09
